Search for airport 
image banner adimage banner adimage banner ad
image banner ad

A30 - Scott Valley

Located in Fort Jones, United States

ICAO - A30, IATA -

Data provided by Airmate  

General information

Coordinates: N41°33'28" W122°51'18"
Elevation is 2728 feet MSL.
Magnetic variation is 18° East
View others Airports in California

Operational data

Special qualification required
Current time UTC:
Current local time:
Weather at : KSIY - Siskiyou County ( 41 km )
METAR: KSIY 211253Z AUTO 09003KT 10SM CLR 17/07 A2994 RMK AO2 SLP118 T01670072
View NOTAMs / SUP AIP / TFR affecting this airport [VIEW]
Communications frequencies: [VIEW]

Runways:

RWY identifierQFULength (ft)Width (ft)SurfaceLDA (ft)
16370050ASPH
34370050ASPH

Airport contact information

Address: Fort Jones United States

Satellite view of A30